sensor_id;sensor_type;location;lat;lon;timestamp;P1;durP1;ratioP1;P2;durP2;ratioP2
35290;SDS011;21411;50.024;19.220;2023-04-16T00:00:41;111.50;;;88.70;;
35290;SDS011;21411;50.024;19.220;2023-04-16T00:03:27;106.00;;;88.30;;
35290;SDS011;21411;50.024;19.220;2023-04-16T00:05:54;107.80;;;89.50;;
35290;SDS011;21411;50.024;19.220;2023-04-16T00:08:22;110.10;;;90.10;;
35290;SDS011;21411;50.024;19.220;2023-04-16T00:10:50;111.50;;;87.30;;
35290;SDS011;21411;50.024;19.220;2023-04-16T00:13:18;109.80;;;83.80;;
35290;SDS011;21411;50.024;19.220;2023-04-16T00:15:45;111.30;;;84.60;;
35290;SDS011;21411;50.024;19.220;2023-04-16T00:18:11;111.60;;;86.20;;
35290;SDS011;21411;50.024;19.220;2023-04-16T00:20:38;106.20;;;85.30;;
35290;SDS011;21411;50.024;19.220;2023-04-16T00:23:04;108.00;;;84.60;;
35290;SDS011;21411;50.024;19.220;2023-04-16T00:25:31;99.70;;;78.60;;
35290;SDS011;21411;50.024;19.220;2023-04-16T00:27:58;107.70;;;81.70;;
35290;SDS011;21411;50.024;19.220;2023-04-16T00:30:24;95.10;;;77.60;;
35290;SDS011;21411;50.024;19.220;2023-04-16T00:32:51;96.60;;;79.60;;
35290;SDS011;21411;50.024;19.220;2023-04-16T00:35:17;100.70;;;83.00;;
35290;SDS011;21411;50.024;19.220;2023-04-16T00:37:44;107.30;;;84.60;;
35290;SDS011;21411;50.024;19.220;2023-04-16T00:40:10;102.60;;;81.30;;
35290;SDS011;21411;50.024;19.220;2023-04-16T00:42:37;107.10;;;80.10;;
35290;SDS011;21411;50.024;19.220;2023-04-16T00:45:04;102.30;;;80.50;;
35290;SDS011;21411;50.024;19.220;2023-04-16T00:47:31;100.50;;;81.00;;
35290;SDS011;21411;50.024;19.220;2023-04-16T00:49:58;104.30;;;81.10;;
35290;SDS011;21411;50.024;19.220;2023-04-16T00:52:25;104.40;;;80.80;;
35290;SDS011;21411;50.024;19.220;2023-04-16T00:54:52;105.40;;;81.60;;
35290;SDS011;21411;50.024;19.220;2023-04-16T00:57:19;102.00;;;80.40;;
35290;SDS011;21411;50.024;19.220;2023-04-16T00:59:49;97.90;;;76.60;;
35290;SDS011;21411;50.024;19.220;2023-04-16T01:02:16;93.60;;;74.50;;
35290;SDS011;21411;50.024;19.220;2023-04-16T01:04:43;93.50;;;74.10;;
35290;SDS011;21411;50.024;19.220;2023-04-16T01:07:09;85.60;;;69.70;;
35290;SDS011;21411;50.024;19.220;2023-04-16T01:09:36;88.80;;;69.30;;
35290;SDS011;21411;50.024;19.220;2023-04-16T01:12:03;88.60;;;67.70;;
35290;SDS011;21411;50.024;19.220;2023-04-16T01:14:30;89.50;;;72.80;;
35290;SDS011;21411;50.024;19.220;2023-04-16T01:17:01;85.50;;;68.00;;
35290;SDS011;21411;50.024;19.220;2023-04-16T01:19:29;92.90;;;72.70;;
35290;SDS011;21411;50.024;19.220;2023-04-16T01:22:01;89.50;;;70.00;;
35290;SDS011;21411;50.024;19.220;2023-04-16T01:24:28;87.40;;;69.70;;
35290;SDS011;21411;50.024;19.220;2023-04-16T01:26:58;91.00;;;70.30;;
35290;SDS011;21411;50.024;19.220;2023-04-16T01:29:25;88.80;;;73.00;;
35290;SDS011;21411;50.024;19.220;2023-04-16T01:31:52;86.80;;;69.10;;
35290;SDS011;21411;50.024;19.220;2023-04-16T01:34:19;91.60;;;71.90;;
35290;SDS011;21411;50.024;19.220;2023-04-16T01:36:46;80.30;;;64.60;;
35290;SDS011;21411;50.024;19.220;2023-04-16T01:39:12;83.90;;;66.60;;
35290;SDS011;21411;50.024;19.220;2023-04-16T01:41:41;88.50;;;70.60;;
35290;SDS011;21411;50.024;19.220;2023-04-16T01:44:07;92.70;;;72.50;;
35290;SDS011;21411;50.024;19.220;2023-04-16T01:46:34;85.90;;;67.70;;
35290;SDS011;21411;50.024;19.220;2023-04-16T01:49:01;72.10;;;59.50;;
35290;SDS011;21411;50.024;19.220;2023-04-16T01:51:29;69.40;;;54.60;;
35290;SDS011;21411;50.024;19.220;2023-04-16T01:53:57;63.40;;;51.30;;
35290;SDS011;21411;50.024;19.220;2023-04-16T01:56:24;61.20;;;50.40;;
35290;SDS011;21411;50.024;19.220;2023-04-16T01:58:51;64.30;;;49.80;;
35290;SDS011;21411;50.024;19.220;2023-04-16T02:01:18;61.40;;;47.70;;
35290;SDS011;21411;50.024;19.220;2023-04-16T02:03:44;59.10;;;48.20;;
35290;SDS011;21411;50.024;19.220;2023-04-16T02:06:11;64.80;;;49.40;;
35290;SDS011;21411;50.024;19.220;2023-04-16T02:08:38;62.00;;;48.40;;
35290;SDS011;21411;50.024;19.220;2023-04-16T02:11:04;55.90;;;46.90;;
35290;SDS011;21411;50.024;19.220;2023-04-16T02:13:31;58.40;;;46.60;;
35290;SDS011;21411;50.024;19.220;2023-04-16T02:15:57;58.00;;;45.90;;
35290;SDS011;21411;50.024;19.220;2023-04-16T02:18:24;54.60;;;43.20;;
35290;SDS011;21411;50.024;19.220;2023-04-16T02:20:50;55.00;;;40.80;;
35290;SDS011;21411;50.024;19.220;2023-04-16T02:23:17;53.30;;;39.80;;
35290;SDS011;21411;50.024;19.220;2023-04-16T02:25:44;53.30;;;39.40;;
35290;SDS011;21411;50.024;19.220;2023-04-16T02:28:13;56.10;;;39.50;;
35290;SDS011;21411;50.024;19.220;2023-04-16T02:30:40;50.30;;;39.20;;
35290;SDS011;21411;50.024;19.220;2023-04-16T02:33:07;53.70;;;41.20;;
35290;SDS011;21411;50.024;19.220;2023-04-16T02:35:36;55.30;;;40.70;;
35290;SDS011;21411;50.024;19.220;2023-04-16T02:38:04;50.50;;;38.00;;
35290;SDS011;21411;50.024;19.220;2023-04-16T02:40:31;52.60;;;37.80;;
35290;SDS011;21411;50.024;19.220;2023-04-16T02:42:59;46.40;;;35.90;;
35290;SDS011;21411;50.024;19.220;2023-04-16T02:45:26;47.60;;;37.90;;
35290;SDS011;21411;50.024;19.220;2023-04-16T02:47:52;46.60;;;37.50;;
35290;SDS011;21411;50.024;19.220;2023-04-16T02:50:19;50.90;;;39.40;;
35290;SDS011;21411;50.024;19.220;2023-04-16T02:52:45;56.00;;;40.90;;
35290;SDS011;21411;50.024;19.220;2023-04-16T02:55:12;55.20;;;42.20;;
35290;SDS011;21411;50.024;19.220;2023-04-16T02:57:38;54.70;;;40.40;;
35290;SDS011;21411;50.024;19.220;2023-04-16T03:00:06;53.20;;;39.90;;
35290;SDS011;21411;50.024;19.220;2023-04-16T03:02:33;51.10;;;39.70;;
35290;SDS011;21411;50.024;19.220;2023-04-16T03:04:59;55.30;;;43.50;;
35290;SDS011;21411;50.024;19.220;2023-04-16T03:07:26;57.00;;;43.40;;
35290;SDS011;21411;50.024;19.220;2023-04-16T03:09:52;54.20;;;43.50;;
35290;SDS011;21411;50.024;19.220;2023-04-16T03:12:19;48.90;;;39.40;;
35290;SDS011;21411;50.024;19.220;2023-04-16T03:14:46;50.50;;;38.40;;
35290;SDS011;21411;50.024;19.220;2023-04-16T03:17:12;47.90;;;37.90;;
35290;SDS011;21411;50.024;19.220;2023-04-16T03:19:39;49.40;;;38.90;;
35290;SDS011;21411;50.024;19.220;2023-04-16T03:22:05;51.40;;;38.80;;
35290;SDS011;21411;50.024;19.220;2023-04-16T03:24:32;48.20;;;39.10;;
35290;SDS011;21411;50.024;19.220;2023-04-16T03:26:58;47.80;;;38.60;;
35290;SDS011;21411;50.024;19.220;2023-04-16T03:29:25;50.40;;;39.70;;
35290;SDS011;21411;50.024;19.220;2023-04-16T03:31:52;55.40;;;42.90;;
35290;SDS011;21411;50.024;19.220;2023-04-16T03:34:18;51.10;;;40.50;;
35290;SDS011;21411;50.024;19.220;2023-04-16T03:36:45;48.40;;;38.60;;
35290;SDS011;21411;50.024;19.220;2023-04-16T03:39:11;47.50;;;39.90;;
35290;SDS011;21411;50.024;19.220;2023-04-16T03:41:38;44.70;;;36.20;;
35290;SDS011;21411;50.024;19.220;2023-04-16T03:44:04;46.60;;;38.60;;
35290;SDS011;21411;50.024;19.220;2023-04-16T03:46:31;48.60;;;41.00;;
35290;SDS011;21411;50.024;19.220;2023-04-16T03:48:57;57.40;;;45.20;;
35290;SDS011;21411;50.024;19.220;2023-04-16T03:51:24;60.30;;;47.80;;
35290;SDS011;21411;50.024;19.220;2023-04-16T03:53:51;58.80;;;45.20;;
35290;SDS011;21411;50.024;19.220;2023-04-16T03:56:17;49.90;;;42.00;;
35290;SDS011;21411;50.024;19.220;2023-04-16T03:58:44;49.50;;;41.40;;
35290;SDS011;21411;50.024;19.220;2023-04-16T04:01:10;50.00;;;39.60;;
35290;SDS011;21411;50.024;19.220;2023-04-16T04:03:37;43.40;;;37.50;;
35290;SDS011;21411;50.024;19.220;2023-04-16T04:06:07;48.10;;;36.80;;
35290;SDS011;21411;50.024;19.220;2023-04-16T04:08:34;46.80;;;38.20;;
35290;SDS011;21411;50.024;19.220;2023-04-16T04:11:01;46.60;;;39.30;;
35290;SDS011;21411;50.024;19.220;2023-04-16T04:13:28;44.40;;;38.10;;
35290;SDS011;21411;50.024;19.220;2023-04-16T04:15:55;46.00;;;37.30;;
35290;SDS011;21411;50.024;19.220;2023-04-16T04:18:21;39.50;;;33.30;;
35290;SDS011;21411;50.024;19.220;2023-04-16T04:20:47;41.80;;;34.70;;
35290;SDS011;21411;50.024;19.220;2023-04-16T04:23:14;35.20;;;31.20;;
35290;SDS011;21411;50.024;19.220;2023-04-16T04:25:40;34.40;;;30.60;;
35290;SDS011;21411;50.024;19.220;2023-04-16T04:28:07;31.20;;;27.70;;
35290;SDS011;21411;50.024;19.220;2023-04-16T04:30:33;31.70;;;27.50;;
35290;SDS011;21411;50.024;19.220;2023-04-16T04:33:01;30.80;;;27.60;;
35290;SDS011;21411;50.024;19.220;2023-04-16T04:35:27;31.80;;;28.60;;
35290;SDS011;21411;50.024;19.220;2023-04-16T04:37:54;33.60;;;30.00;;
35290;SDS011;21411;50.024;19.220;2023-04-16T04:40:20;33.00;;;29.70;;
35290;SDS011;21411;50.024;19.220;2023-04-16T04:42:47;30.70;;;27.10;;
35290;SDS011;21411;50.024;19.220;2023-04-16T04:45:14;27.50;;;24.00;;
35290;SDS011;21411;50.024;19.220;2023-04-16T04:47:41;25.20;;;22.50;;
35290;SDS011;21411;50.024;19.220;2023-04-16T04:50:07;24.80;;;22.00;;
35290;SDS011;21411;50.024;19.220;2023-04-16T04:52:34;25.90;;;22.90;;
35290;SDS011;21411;50.024;19.220;2023-04-16T04:55:01;24.70;;;21.70;;
35290;SDS011;21411;50.024;19.220;2023-04-16T04:57:27;26.70;;;22.90;;
35290;SDS011;21411;50.024;19.220;2023-04-16T04:59:54;26.40;;;22.90;;
35290;SDS011;21411;50.024;19.220;2023-04-16T05:02:20;29.20;;;24.60;;
35290;SDS011;21411;50.024;19.220;2023-04-16T05:04:47;26.60;;;23.30;;
35290;SDS011;21411;50.024;19.220;2023-04-16T05:07:13;23.90;;;21.40;;
35290;SDS011;21411;50.024;19.220;2023-04-16T05:09:40;26.10;;;21.70;;
35290;SDS011;21411;50.024;19.220;2023-04-16T05:12:06;26.70;;;24.10;;
35290;SDS011;21411;50.024;19.220;2023-04-16T05:14:33;25.90;;;23.10;;
35290;SDS011;21411;50.024;19.220;2023-04-16T05:17:01;24.30;;;21.80;;
35290;SDS011;21411;50.024;19.220;2023-04-16T05:19:27;25.90;;;23.20;;
35290;SDS011;21411;50.024;19.220;2023-04-16T05:21:54;23.90;;;21.30;;
35290;SDS011;21411;50.024;19.220;2023-04-16T05:24:21;27.90;;;22.50;;
35290;SDS011;21411;50.024;19.220;2023-04-16T05:26:47;29.60;;;24.40;;
35290;SDS011;21411;50.024;19.220;2023-04-16T05:29:14;32.20;;;25.70;;
35290;SDS011;21411;50.024;19.220;2023-04-16T05:31:40;33.80;;;27.00;;
35290;SDS011;21411;50.024;19.220;2023-04-16T05:34:07;36.60;;;28.80;;
35290;SDS011;21411;50.024;19.220;2023-04-16T05:36:33;37.40;;;28.10;;
35290;SDS011;21411;50.024;19.220;2023-04-16T05:39:00;37.10;;;28.30;;
35290;SDS011;21411;50.024;19.220;2023-04-16T05:41:26;41.40;;;29.90;;
35290;SDS011;21411;50.024;19.220;2023-04-16T05:43:53;39.50;;;28.70;;
35290;SDS011;21411;50.024;19.220;2023-04-16T05:46:19;43.10;;;28.80;;
35290;SDS011;21411;50.024;19.220;2023-04-16T05:48:45;39.80;;;29.20;;
35290;SDS011;21411;50.024;19.220;2023-04-16T05:51:12;39.20;;;28.30;;
35290;SDS011;21411;50.024;19.220;2023-04-16T05:53:38;38.00;;;27.50;;
35290;SDS011;21411;50.024;19.220;2023-04-16T05:56:06;34.30;;;26.30;;
35290;SDS011;21411;50.024;19.220;2023-04-16T05:58:33;35.70;;;25.70;;
35290;SDS011;21411;50.024;19.220;2023-04-16T06:00:59;33.30;;;26.30;;
35290;SDS011;21411;50.024;19.220;2023-04-16T06:03:26;33.50;;;25.10;;
35290;SDS011;21411;50.024;19.220;2023-04-16T06:05:53;35.20;;;25.70;;
35290;SDS011;21411;50.024;19.220;2023-04-16T06:08:19;31.30;;;24.00;;
35290;SDS011;21411;50.024;19.220;2023-04-16T06:10:46;32.80;;;26.00;;
35290;SDS011;21411;50.024;19.220;2023-04-16T06:16:05;31.20;;;25.90;;
35290;SDS011;21411;50.024;19.220;2023-04-16T06:18:31;30.00;;;23.90;;
35290;SDS011;21411;50.024;19.220;2023-04-16T06:20:58;31.10;;;24.10;;
35290;SDS011;21411;50.024;19.220;2023-04-16T06:23:25;28.20;;;23.20;;
35290;SDS011;21411;50.024;19.220;2023-04-16T06:25:51;29.40;;;21.30;;
35290;SDS011;21411;50.024;19.220;2023-04-16T06:28:17;27.20;;;21.60;;
35290;SDS011;21411;50.024;19.220;2023-04-16T06:30:45;29.20;;;23.80;;
35290;SDS011;21411;50.024;19.220;2023-04-16T06:33:11;27.00;;;22.60;;
35290;SDS011;21411;50.024;19.220;2023-04-16T06:35:38;28.70;;;23.80;;
35290;SDS011;21411;50.024;19.220;2023-04-16T06:38:05;29.80;;;24.10;;
35290;SDS011;21411;50.024;19.220;2023-04-16T06:40:31;28.90;;;22.70;;
35290;SDS011;21411;50.024;19.220;2023-04-16T06:42:58;28.10;;;23.00;;
35290;SDS011;21411;50.024;19.220;2023-04-16T06:45:25;30.10;;;24.30;;
35290;SDS011;21411;50.024;19.220;2023-04-16T06:47:51;30.00;;;24.00;;
35290;SDS011;21411;50.024;19.220;2023-04-16T06:50:18;30.00;;;23.80;;
35290;SDS011;21411;50.024;19.220;2023-04-16T06:52:44;26.10;;;22.90;;
35290;SDS011;21411;50.024;19.220;2023-04-16T06:55:11;27.50;;;21.60;;
35290;SDS011;21411;50.024;19.220;2023-04-16T06:57:38;28.50;;;22.70;;
35290;SDS011;21411;50.024;19.220;2023-04-16T07:00:05;30.90;;;22.80;;
35290;SDS011;21411;50.024;19.220;2023-04-16T07:02:33;26.20;;;21.70;;
35290;SDS011;21411;50.024;19.220;2023-04-16T07:05:00;23.60;;;20.50;;
35290;SDS011;21411;50.024;19.220;2023-04-16T07:07:26;26.90;;;20.80;;
35290;SDS011;21411;50.024;19.220;2023-04-16T07:09:53;21.80;;;19.50;;
35290;SDS011;21411;50.024;19.220;2023-04-16T07:12:20;24.30;;;20.50;;
35290;SDS011;21411;50.024;19.220;2023-04-16T07:14:47;21.30;;;18.80;;
35290;SDS011;21411;50.024;19.220;2023-04-16T07:17:14;22.80;;;20.10;;
35290;SDS011;21411;50.024;19.220;2023-04-16T07:19:40;22.90;;;20.40;;
35290;SDS011;21411;50.024;19.220;2023-04-16T07:22:07;22.30;;;19.30;;
35290;SDS011;21411;50.024;19.220;2023-04-16T07:24:33;23.90;;;20.00;;
35290;SDS011;21411;50.024;19.220;2023-04-16T07:27:01;23.60;;;21.10;;
35290;SDS011;21411;50.024;19.220;2023-04-16T07:29:27;20.80;;;17.90;;
35290;SDS011;21411;50.024;19.220;2023-04-16T07:31:54;21.20;;;18.90;;
35290;SDS011;21411;50.024;19.220;2023-04-16T07:34:20;21.40;;;19.00;;
35290;SDS011;21411;50.024;19.220;2023-04-16T07:36:47;20.20;;;17.90;;
35290;SDS011;21411;50.024;19.220;2023-04-16T07:39:13;20.90;;;18.00;;
35290;SDS011;21411;50.024;19.220;2023-04-16T07:41:40;20.00;;;16.70;;
35290;SDS011;21411;50.024;19.220;2023-04-16T07:44:07;21.00;;;18.10;;
35290;SDS011;21411;50.024;19.220;2023-04-16T07:46:34;20.50;;;17.30;;
35290;SDS011;21411;50.024;19.220;2023-04-16T07:49:02;17.80;;;15.90;;
35290;SDS011;21411;50.024;19.220;2023-04-16T07:51:29;19.60;;;17.00;;
35290;SDS011;21411;50.024;19.220;2023-04-16T07:53:56;16.40;;;14.70;;
35290;SDS011;21411;50.024;19.220;2023-04-16T07:56:23;16.70;;;14.70;;
35290;SDS011;21411;50.024;19.220;2023-04-16T07:58:49;15.80;;;14.10;;
35290;SDS011;21411;50.024;19.220;2023-04-16T08:01:16;14.20;;;12.70;;
35290;SDS011;21411;50.024;19.220;2023-04-16T08:03:43;13.80;;;12.30;;
35290;SDS011;21411;50.024;19.220;2023-04-16T08:06:09;12.80;;;10.50;;
35290;SDS011;21411;50.024;19.220;2023-04-16T08:08:36;13.90;;;12.00;;
35290;SDS011;21411;50.024;19.220;2023-04-16T08:11:03;13.60;;;11.00;;
35290;SDS011;21411;50.024;19.220;2023-04-16T08:13:30;12.70;;;11.20;;
35290;SDS011;21411;50.024;19.220;2023-04-16T08:15:56;13.00;;;11.30;;
35290;SDS011;21411;50.024;19.220;2023-04-16T08:18:23;11.80;;;10.60;;
35290;SDS011;21411;50.024;19.220;2023-04-16T08:20:50;10.80;;;8.90;;
35290;SDS011;21411;50.024;19.220;2023-04-16T08:23:18;9.00;;;8.10;;
35290;SDS011;21411;50.024;19.220;2023-04-16T08:25:44;10.70;;;9.60;;
35290;SDS011;21411;50.024;19.220;2023-04-16T08:28:11;8.60;;;7.10;;
35290;SDS011;21411;50.024;19.220;2023-04-16T08:30:37;9.30;;;7.10;;
35290;SDS011;21411;50.024;19.220;2023-04-16T08:33:04;8.40;;;6.90;;
35290;SDS011;21411;50.024;19.220;2023-04-16T08:35:31;9.10;;;7.80;;
35290;SDS011;21411;50.024;19.220;2023-04-16T08:37:57;8.90;;;7.80;;
35290;SDS011;21411;50.024;19.220;2023-04-16T08:40:25;8.30;;;6.30;;
35290;SDS011;21411;50.024;19.220;2023-04-16T08:42:55;6.70;;;6.10;;
35290;SDS011;21411;50.024;19.220;2023-04-16T08:45:26;6.90;;;5.90;;
35290;SDS011;21411;50.024;19.220;2023-04-16T08:47:52;7.60;;;6.90;;
35290;SDS011;21411;50.024;19.220;2023-04-16T08:50:22;7.60;;;6.70;;
35290;SDS011;21411;50.024;19.220;2023-04-16T08:53:02;9.90;;;8.30;;
35290;SDS011;21411;50.024;19.220;2023-04-16T08:58:30;9.30;;;8.40;;
35290;SDS011;21411;50.024;19.220;2023-04-16T09:01:01;7.40;;;6.70;;
35290;SDS011;21411;50.024;19.220;2023-04-16T09:03:32;7.20;;;6.40;;
35290;SDS011;21411;50.024;19.220;2023-04-16T09:05:59;5.70;;;5.00;;
35290;SDS011;21411;50.024;19.220;2023-04-16T09:08:28;7.00;;;5.80;;
35290;SDS011;21411;50.024;19.220;2023-04-16T09:10:55;5.40;;;4.60;;
35290;SDS011;21411;50.024;19.220;2023-04-16T09:13:23;6.30;;;4.70;;
35290;SDS011;21411;50.024;19.220;2023-04-16T09:15:51;5.50;;;5.00;;
35290;SDS011;21411;50.024;19.220;2023-04-16T09:18:18;5.40;;;4.80;;
35290;SDS011;21411;50.024;19.220;2023-04-16T09:20:47;5.70;;;4.70;;
35290;SDS011;21411;50.024;19.220;2023-04-16T09:23:14;4.80;;;4.20;;
35290;SDS011;21411;50.024;19.220;2023-04-16T09:25:41;4.50;;;4.10;;
35290;SDS011;21411;50.024;19.220;2023-04-16T09:28:08;4.60;;;3.80;;
35290;SDS011;21411;50.024;19.220;2023-04-16T09:30:35;4.50;;;3.50;;
35290;SDS011;21411;50.024;19.220;2023-04-16T09:35:47;4.20;;;3.80;;
35290;SDS011;21411;50.024;19.220;2023-04-16T09:38:15;6.50;;;3.80;;
35290;SDS011;21411;50.024;19.220;2023-04-16T09:40:42;4.70;;;4.20;;
35290;SDS011;21411;50.024;19.220;2023-04-16T09:43:12;4.30;;;3.90;;
35290;SDS011;21411;50.024;19.220;2023-04-16T09:45:50;4.50;;;4.10;;
35290;SDS011;21411;50.024;19.220;2023-04-16T09:48:30;5.10;;;4.50;;
35290;SDS011;21411;50.024;19.220;2023-04-16T09:50:58;4.40;;;4.00;;
35290;SDS011;21411;50.024;19.220;2023-04-16T09:53:29;4.70;;;4.30;;
35290;SDS011;21411;50.024;19.220;2023-04-16T09:55:57;4.40;;;4.00;;
35290;SDS011;21411;50.024;19.220;2023-04-16T09:58:24;3.90;;;3.50;;
35290;SDS011;21411;50.024;19.220;2023-04-16T10:00:54;4.20;;;3.40;;
35290;SDS011;21411;50.024;19.220;2023-04-16T10:03:32;5.20;;;4.60;;
35290;SDS011;21411;50.024;19.220;2023-04-16T10:08:32;4.90;;;3.80;;
35290;SDS011;21411;50.024;19.220;2023-04-16T10:10:58;5.10;;;4.60;;
35290;SDS011;21411;50.024;19.220;2023-04-16T10:13:25;5.40;;;4.70;;
35290;SDS011;21411;50.024;19.220;2023-04-16T10:15:56;5.40;;;4.90;;
35290;SDS011;21411;50.024;19.220;2023-04-16T10:18:23;4.80;;;4.40;;
35290;SDS011;21411;50.024;19.220;2023-04-16T10:20:50;6.00;;;4.50;;
35290;SDS011;21411;50.024;19.220;2023-04-16T10:23:18;4.20;;;3.80;;
35290;SDS011;21411;50.024;19.220;2023-04-16T10:25:47;4.90;;;4.20;;
35290;SDS011;21411;50.024;19.220;2023-04-16T10:28:15;4.40;;;4.00;;
35290;SDS011;21411;50.024;19.220;2023-04-16T10:30:43;4.40;;;3.90;;
35290;SDS011;21411;50.024;19.220;2023-04-16T10:33:31;3.80;;;3.40;;
35290;SDS011;21411;50.024;19.220;2023-04-16T10:36:07;4.10;;;3.50;;
35290;SDS011;21411;50.024;19.220;2023-04-16T10:38:44;2.70;;;2.50;;
35290;SDS011;21411;50.024;19.220;2023-04-16T10:41:12;4.80;;;4.30;;
35290;SDS011;21411;50.024;19.220;2023-04-16T10:43:41;5.20;;;4.00;;
35290;SDS011;21411;50.024;19.220;2023-04-16T10:46:19;5.00;;;4.60;;
35290;SDS011;21411;50.024;19.220;2023-04-16T10:48:51;4.60;;;4.10;;
35290;SDS011;21411;50.024;19.220;2023-04-16T10:53:58;3.90;;;3.60;;
35290;SDS011;21411;50.024;19.220;2023-04-16T10:56:32;3.90;;;3.60;;
35290;SDS011;21411;50.024;19.220;2023-04-16T10:59:00;3.40;;;3.10;;
35290;SDS011;21411;50.024;19.220;2023-04-16T11:09:43;4.20;;;3.80;;
35290;SDS011;21411;50.024;19.220;2023-04-16T11:12:17;3.70;;;3.40;;
35290;SDS011;21411;50.024;19.220;2023-04-16T11:14:51;3.80;;;3.40;;
35290;SDS011;21411;50.024;19.220;2023-04-16T11:17:29;3.40;;;3.10;;
35290;SDS011;21411;50.024;19.220;2023-04-16T11:19:58;3.90;;;3.60;;
35290;SDS011;21411;50.024;19.220;2023-04-16T11:22:25;3.60;;;3.30;;
35290;SDS011;21411;50.024;19.220;2023-04-16T11:24:53;3.10;;;2.50;;
35290;SDS011;21411;50.024;19.220;2023-04-16T11:27:24;2.70;;;2.50;;
35290;SDS011;21411;50.024;19.220;2023-04-16T11:30:00;2.90;;;2.70;;
35290;SDS011;21411;50.024;19.220;2023-04-16T11:32:33;3.60;;;2.70;;
35290;SDS011;21411;50.024;19.220;2023-04-16T11:35:00;3.40;;;2.50;;
35290;SDS011;21411;50.024;19.220;2023-04-16T11:37:36;2.80;;;2.50;;
35290;SDS011;21411;50.024;19.220;2023-04-16T11:40:04;3.20;;;2.90;;
35290;SDS011;21411;50.024;19.220;2023-04-16T11:42:35;2.60;;;2.40;;
35290;SDS011;21411;50.024;19.220;2023-04-16T11:45:02;2.80;;;2.10;;
35290;SDS011;21411;50.024;19.220;2023-04-16T11:47:30;2.50;;;2.30;;
35290;SDS011;21411;50.024;19.220;2023-04-16T11:49:56;2.60;;;2.40;;
35290;SDS011;21411;50.024;19.220;2023-04-16T11:52:27;2.30;;;2.10;;
35290;SDS011;21411;50.024;19.220;2023-04-16T11:54:56;2.90;;;2.30;;
35290;SDS011;21411;50.024;19.220;2023-04-16T11:57:27;2.80;;;2.60;;
35290;SDS011;21411;50.024;19.220;2023-04-16T11:59:56;2.10;;;1.90;;
35290;SDS011;21411;50.024;19.220;2023-04-16T12:08:01;2.40;;;2.00;;
35290;SDS011;21411;50.024;19.220;2023-04-16T12:10:29;1.90;;;1.80;;
35290;SDS011;21411;50.024;19.220;2023-04-16T12:13:08;2.60;;;2.40;;
35290;SDS011;21411;50.024;19.220;2023-04-16T12:15:52;2.30;;;2.10;;
35290;SDS011;21411;50.024;19.220;2023-04-16T12:18:22;1.90;;;1.80;;
35290;SDS011;21411;50.024;19.220;2023-04-16T12:20:51;2.10;;;1.90;;
35290;SDS011;21411;50.024;19.220;2023-04-16T12:23:21;1.50;;;1.40;;
35290;SDS011;21411;50.024;19.220;2023-04-16T12:25:52;1.70;;;1.60;;
35290;SDS011;21411;50.024;19.220;2023-04-16T12:28:26;1.80;;;1.70;;
35290;SDS011;21411;50.024;19.220;2023-04-16T12:31:00;1.70;;;1.40;;
35290;SDS011;21411;50.024;19.220;2023-04-16T12:33:28;1.50;;;1.40;;
35290;SDS011;21411;50.024;19.220;2023-04-16T12:35:55;2.30;;;2.00;;
35290;SDS011;21411;50.024;19.220;2023-04-16T12:38:21;2.50;;;1.70;;
35290;SDS011;21411;50.024;19.220;2023-04-16T12:40:48;1.90;;;1.50;;
35290;SDS011;21411;50.024;19.220;2023-04-16T12:43:15;2.70;;;2.00;;
35290;SDS011;21411;50.024;19.220;2023-04-16T12:45:42;1.90;;;1.80;;
35290;SDS011;21411;50.024;19.220;2023-04-16T12:48:08;2.40;;;1.80;;
35290;SDS011;21411;50.024;19.220;2023-04-16T12:50:37;2.60;;;2.10;;
35290;SDS011;21411;50.024;19.220;2023-04-16T12:53:04;2.40;;;1.90;;
35290;SDS011;21411;50.024;19.220;2023-04-16T12:55:31;1.80;;;1.70;;
35290;SDS011;21411;50.024;19.220;2023-04-16T12:57:58;1.90;;;1.60;;
35290;SDS011;21411;50.024;19.220;2023-04-16T13:00:24;2.80;;;1.90;;
35290;SDS011;21411;50.024;19.220;2023-04-16T13:02:51;1.80;;;1.70;;
35290;SDS011;21411;50.024;19.220;2023-04-16T13:05:17;1.60;;;1.40;;
35290;SDS011;21411;50.024;19.220;2023-04-16T13:07:44;1.30;;;1.20;;
35290;SDS011;21411;50.024;19.220;2023-04-16T13:10:11;1.70;;;1.60;;
35290;SDS011;21411;50.024;19.220;2023-04-16T13:12:38;1.90;;;1.50;;
35290;SDS011;21411;50.024;19.220;2023-04-16T13:15:05;2.70;;;1.90;;
35290;SDS011;21411;50.024;19.220;2023-04-16T13:17:39;2.10;;;1.80;;
35290;SDS011;21411;50.024;19.220;2023-04-16T13:20:06;2.10;;;1.50;;
35290;SDS011;21411;50.024;19.220;2023-04-16T13:22:34;1.70;;;1.60;;
35290;SDS011;21411;50.024;19.220;2023-04-16T13:25:00;2.00;;;1.80;;
35290;SDS011;21411;50.024;19.220;2023-04-16T13:27:27;2.10;;;1.90;;
35290;SDS011;21411;50.024;19.220;2023-04-16T13:29:53;1.90;;;1.80;;
35290;SDS011;21411;50.024;19.220;2023-04-16T13:32:20;2.20;;;2.00;;
35290;SDS011;21411;50.024;19.220;2023-04-16T13:34:46;2.30;;;2.10;;
35290;SDS011;21411;50.024;19.220;2023-04-16T13:37:13;1.60;;;1.50;;
35290;SDS011;21411;50.024;19.220;2023-04-16T13:39:39;1.80;;;1.70;;
35290;SDS011;21411;50.024;19.220;2023-04-16T13:42:06;1.90;;;1.40;;
35290;SDS011;21411;50.024;19.220;2023-04-16T13:44:32;1.60;;;1.50;;
35290;SDS011;21411;50.024;19.220;2023-04-16T13:46:59;2.40;;;1.80;;
35290;SDS011;21411;50.024;19.220;2023-04-16T13:49:26;1.80;;;1.70;;
35290;SDS011;21411;50.024;19.220;2023-04-16T13:51:53;1.80;;;1.40;;
35290;SDS011;21411;50.024;19.220;2023-04-16T13:54:19;1.80;;;1.70;;
35290;SDS011;21411;50.024;19.220;2023-04-16T13:56:46;1.50;;;1.40;;
35290;SDS011;21411;50.024;19.220;2023-04-16T13:59:12;1.70;;;1.60;;
35290;SDS011;21411;50.024;19.220;2023-04-16T14:01:40;1.60;;;1.30;;
35290;SDS011;21411;50.024;19.220;2023-04-16T14:04:07;1.50;;;1.30;;
35290;SDS011;21411;50.024;19.220;2023-04-16T14:06:33;1.60;;;1.50;;
35290;SDS011;21411;50.024;19.220;2023-04-16T14:09:00;1.70;;;1.60;;
35290;SDS011;21411;50.024;19.220;2023-04-16T14:11:27;1.70;;;1.60;;
35290;SDS011;21411;50.024;19.220;2023-04-16T14:13:54;1.80;;;1.60;;
35290;SDS011;21411;50.024;19.220;2023-04-16T14:16:20;2.00;;;1.80;;
35290;SDS011;21411;50.024;19.220;2023-04-16T14:18:47;2.10;;;1.90;;
35290;SDS011;21411;50.024;19.220;2023-04-16T14:21:13;2.60;;;2.40;;
35290;SDS011;21411;50.024;19.220;2023-04-16T14:23:40;2.50;;;2.30;;
35290;SDS011;21411;50.024;19.220;2023-04-16T14:26:07;2.30;;;1.60;;
35290;SDS011;21411;50.024;19.220;2023-04-16T14:28:33;2.60;;;2.00;;
35290;SDS011;21411;50.024;19.220;2023-04-16T14:31:00;2.20;;;2.00;;
35290;SDS011;21411;50.024;19.220;2023-04-16T14:33:27;2.30;;;2.10;;
35290;SDS011;21411;50.024;19.220;2023-04-16T14:35:53;2.30;;;2.10;;
35290;SDS011;21411;50.024;19.220;2023-04-16T14:38:20;1.80;;;1.70;;
35290;SDS011;21411;50.024;19.220;2023-04-16T14:40:47;2.80;;;2.40;;
35290;SDS011;21411;50.024;19.220;2023-04-16T14:43:14;1.90;;;1.70;;
35290;SDS011;21411;50.024;19.220;2023-04-16T14:45:40;1.90;;;1.70;;
35290;SDS011;21411;50.024;19.220;2023-04-16T14:48:06;2.10;;;1.90;;